createdAt,value
2023-03-10T00:02:55.886Z,76.00
2023-03-10T00:05:57.782Z,75.70
2023-03-10T00:09:00.252Z,75.70
2023-03-10T00:12:03.544Z,76.00
2023-03-10T00:15:06.847Z,76.10
2023-03-10T00:18:08.788Z,76.90
2023-03-10T00:21:17.633Z,76.50
2023-03-10T00:24:19.553Z,76.80
2023-03-10T00:27:21.996Z,77.90
2023-03-10T00:30:24.719Z,77.40
2023-03-10T00:33:26.807Z,78.20
2023-03-10T00:36:30.625Z,79.20
2023-03-10T00:39:32.701Z,79.80
2023-03-10T00:42:34.587Z,79.90
2023-03-10T00:45:36.434Z,80.30
2023-03-10T00:48:38.385Z,80.60
2023-03-10T00:51:40.277Z,82.00
2023-03-10T00:54:42.345Z,82.00
2023-03-10T00:57:44.411Z,82.60
2023-03-10T01:00:46.286Z,82.60
2023-03-10T01:03:50.555Z,83.40
2023-03-10T01:06:53.506Z,83.10
2023-03-10T01:13:02.627Z,83.70
2023-03-10T01:16:04.842Z,83.70
2023-03-10T01:19:06.863Z,83.90
2023-03-10T01:22:08.762Z,84.30
2023-03-10T01:25:16.443Z,84.20
2023-03-10T01:28:18.699Z,84.30
2023-03-10T01:31:21.277Z,84.50
2023-03-10T01:34:23.316Z,84.70
2023-03-10T01:37:25.371Z,85.20
2023-03-10T01:40:28.780Z,85.20
2023-03-10T01:43:44.770Z,85.30
2023-03-10T01:46:48.547Z,84.70
2023-03-10T01:50:06.405Z,84.70
2023-03-10T01:53:10.019Z,85.30
2023-03-10T01:56:12.287Z,84.60
2023-03-10T01:59:14.951Z,84.50
2023-03-10T02:02:18.159Z,84.90
2023-03-10T02:05:21.629Z,85.10
2023-03-10T02:08:26.150Z,85.10
2023-03-10T02:11:28.355Z,84.70
2023-03-10T02:14:32.228Z,84.60
2023-03-10T02:17:34.601Z,84.40
2023-03-10T02:20:44.371Z,84.40
2023-03-10T02:24:28.727Z,84.60
2023-03-10T02:27:35.382Z,84.60
2023-03-10T02:30:41.489Z,84.60
2023-03-10T02:33:46.045Z,84.60
2023-03-10T02:36:48.057Z,84.10
2023-03-10T02:39:50.538Z,84.20
2023-03-10T02:42:52.721Z,83.90
2023-03-10T02:46:01.162Z,84.00
2023-03-10T02:49:05.852Z,83.70
2023-03-10T02:52:40.042Z,83.20
2023-03-10T02:55:42.434Z,83.00
2023-03-10T02:58:45.054Z,83.00
2023-03-10T03:01:47.076Z,82.60
2023-03-10T03:04:49.937Z,82.40
2023-03-10T03:07:52.365Z,82.40
2023-03-10T03:10:54.587Z,82.40
2023-03-10T03:13:56.933Z,81.70
2023-03-10T03:17:01.217Z,82.00
2023-03-10T03:20:04.216Z,81.90
2023-03-10T03:23:07.006Z,82.50
2023-03-10T03:26:22.482Z,82.20
2023-03-10T03:29:26.829Z,83.00
2023-03-10T03:32:29.444Z,83.00
2023-03-10T03:35:37.444Z,83.50
2023-03-10T03:38:41.330Z,84.10
2023-03-10T03:41:43.725Z,84.20
2023-03-10T03:44:46.667Z,84.40
2023-03-10T03:47:49.128Z,84.60
2023-03-10T03:50:51.490Z,84.20
2023-03-10T03:54:09.510Z,84.20
2023-03-10T03:57:13.974Z,84.20
2023-03-10T04:00:22.794Z,84.50
2023-03-10T04:03:31.125Z,84.40
2023-03-10T04:06:33.582Z,84.20
2023-03-10T04:09:35.775Z,83.60
2023-03-10T04:13:13.716Z,83.20
2023-03-10T04:16:16.180Z,83.00
2023-03-10T04:19:20.091Z,82.90
2023-03-10T04:22:26.344Z,82.60
2023-03-10T04:25:28.833Z,82.50
2023-03-10T04:28:33.687Z,82.20
2023-03-10T04:31:36.422Z,82.00
2023-03-10T04:34:38.891Z,82.20
2023-03-10T04:37:41.494Z,82.10
2023-03-10T04:40:43.757Z,82.30
2023-03-10T04:43:47.800Z,82.40
2023-03-10T04:46:51.624Z,82.50
2023-03-10T04:49:54.208Z,82.40
2023-03-10T04:52:56.263Z,82.60
2023-03-10T04:56:05.641Z,82.80
2023-03-10T04:59:09.026Z,82.80
2023-03-10T05:02:11.192Z,83.20
2023-03-10T05:05:13.146Z,83.20
2023-03-10T05:08:18.922Z,83.50
2023-03-10T05:11:21.472Z,83.50
2023-03-10T05:14:23.391Z,83.60
2023-03-10T05:17:25.643Z,83.40
2023-03-10T05:20:27.722Z,83.10
2023-03-10T05:23:29.777Z,83.10
2023-03-10T05:26:34.685Z,83.00
2023-03-10T05:29:38.968Z,82.90
2023-03-10T05:32:48.224Z,82.90
2023-03-10T05:35:50.355Z,82.30
2023-03-10T05:38:52.264Z,82.50
2023-03-10T05:41:54.449Z,82.00
2023-03-10T05:45:00.002Z,81.80
2023-03-10T05:48:04.926Z,81.50
2023-03-10T05:51:09.998Z,81.50
2023-03-10T05:54:12.664Z,81.40
2023-03-10T05:57:14.830Z,81.50
2023-03-10T06:00:17.388Z,81.00
2023-03-10T06:03:30.241Z,80.60
2023-03-10T06:06:32.275Z,80.60
2023-03-10T06:09:34.146Z,80.30
2023-03-10T06:12:36.284Z,79.60
2023-03-10T06:15:38.171Z,79.00
2023-03-10T06:18:40.205Z,79.30
2023-03-10T06:21:42.139Z,79.20
2023-03-10T06:24:44.410Z,79.10
2023-03-10T06:27:46.597Z,78.80
2023-03-10T06:30:55.305Z,78.80
2023-03-10T06:33:57.566Z,79.20
2023-03-10T06:36:59.554Z,79.90
2023-03-10T06:40:01.524Z,80.40
2023-03-10T06:43:03.647Z,80.90
2023-03-10T06:46:08.257Z,81.00
2023-03-10T06:49:10.753Z,80.70
2023-03-10T06:52:12.585Z,80.50
2023-03-10T06:55:14.509Z,78.00
2023-03-10T06:58:16.310Z,75.70
2023-03-10T07:01:29.918Z,73.80
2023-03-10T07:04:31.958Z,70.30
2023-03-10T07:07:34.177Z,68.30
2023-03-10T07:10:36.351Z,66.10
2023-03-10T07:13:38.390Z,65.10
2023-03-10T07:16:40.794Z,62.80
2023-03-10T07:19:42.815Z,66.40
2023-03-10T07:22:44.764Z,69.40
2023-03-10T07:25:46.819Z,73.10
2023-03-10T07:28:48.888Z,76.30
2023-03-10T07:31:50.877Z,78.80
2023-03-10T07:34:52.773Z,78.90
2023-03-10T07:37:54.786Z,78.00
2023-03-10T07:40:56.628Z,77.70
2023-03-10T07:43:58.675Z,78.90
2023-03-10T07:47:00.552Z,79.80
2023-03-10T07:50:02.649Z,80.40
2023-03-10T07:53:04.559Z,81.40
2023-03-10T07:56:08.132Z,81.00
2023-03-10T07:59:10.133Z,81.20
2023-03-10T08:02:13.478Z,81.40
2023-03-10T08:05:15.493Z,81.70
2023-03-10T08:08:18.157Z,81.20
2023-03-10T08:11:20.236Z,81.30
2023-03-10T08:14:22.153Z,81.00
2023-03-10T08:17:24.145Z,80.90
2023-03-10T08:20:26.030Z,82.00
2023-03-10T08:23:28.150Z,81.70
2023-03-10T08:26:30.047Z,82.30
2023-03-10T08:29:32.045Z,82.30
2023-03-10T08:32:34.469Z,81.90
2023-03-10T08:35:38.352Z,82.00
2023-03-10T08:38:41.127Z,82.10
2023-03-10T08:41:45.558Z,82.00
2023-03-10T08:44:47.505Z,82.20
2023-03-10T08:47:49.379Z,82.40
2023-03-10T08:50:51.466Z,81.70
2023-03-10T08:53:54.008Z,81.20
2023-03-10T08:56:55.882Z,81.30
2023-03-10T08:59:57.897Z,80.80
2023-03-10T09:02:59.848Z,81.00
2023-03-10T09:06:02.229Z,80.90
2023-03-10T09:09:05.706Z,80.10
2023-03-10T09:12:07.686Z,81.00
2023-03-10T09:15:10.019Z,81.00
2023-03-10T09:18:13.903Z,81.80
2023-03-10T09:21:17.501Z,81.60
2023-03-10T09:24:19.423Z,81.80
2023-03-10T09:27:21.524Z,82.50
2023-03-10T09:30:23.894Z,82.80
2023-03-10T09:33:25.840Z,83.00
2023-03-10T09:36:28.164Z,83.90
2023-03-10T09:39:30.247Z,83.00
2023-03-10T09:42:42.863Z,82.90
2023-03-10T09:45:57.238Z,82.80
2023-03-10T09:49:14.269Z,83.40
2023-03-10T09:52:28.233Z,83.40
2023-03-10T09:55:47.522Z,83.10
2023-03-10T09:59:05.109Z,83.50
2023-03-10T10:02:20.572Z,83.60
2023-03-10T10:05:28.610Z,83.50
2023-03-10T10:09:04.325Z,83.40
2023-03-10T10:12:12.717Z,82.90
2023-03-10T10:15:18.277Z,83.30
2023-03-10T10:18:30.742Z,82.70
2023-03-10T10:21:42.753Z,83.40
2023-03-10T10:25:10.315Z,82.60
2023-03-10T10:28:33.409Z,82.80
2023-03-10T10:31:36.235Z,81.40
2023-03-10T10:34:41.632Z,82.00
2023-03-10T10:37:46.123Z,82.30
2023-03-10T10:40:51.241Z,83.10
2023-03-10T10:43:56.973Z,83.50
2023-03-10T10:46:58.910Z,83.70
2023-03-10T10:50:19.189Z,83.40
2023-03-10T10:53:25.280Z,83.80
2023-03-10T10:56:28.855Z,82.80
2023-03-10T10:59:35.203Z,83.40
2023-03-10T11:02:37.118Z,83.40
2023-03-10T11:05:39.025Z,84.10
2023-03-10T11:08:41.735Z,83.10
2023-03-10T11:11:58.626Z,83.70
2023-03-10T11:15:07.582Z,84.00
2023-03-10T11:18:24.499Z,83.60
2023-03-10T11:21:30.061Z,83.60
2023-03-10T11:24:42.286Z,84.00
2023-03-10T11:28:14.616Z,83.50
2023-03-10T11:31:42.656Z,82.80
2023-03-10T11:34:51.909Z,82.30
2023-03-10T11:38:01.718Z,81.70
2023-03-10T11:41:15.694Z,82.30
2023-03-10T11:44:25.767Z,82.60
2023-03-10T11:47:56.759Z,82.60
2023-03-10T12:03:34.854Z,83.90
2023-03-10T12:07:07.458Z,84.90
2023-03-10T12:10:12.271Z,84.50
2023-03-10T12:13:25.717Z,85.30
2023-03-10T12:16:36.835Z,85.00
2023-03-10T12:20:07.098Z,84.90
2023-03-10T12:23:24.169Z,83.20
2023-03-10T12:27:00.052Z,83.50
2023-03-10T12:30:40.454Z,83.70
2023-03-10T12:33:47.706Z,83.70
2023-03-10T12:37:05.573Z,83.00
2023-03-10T12:40:47.755Z,83.50
2023-03-10T12:43:56.114Z,83.70
2023-03-10T12:47:15.473Z,82.50
2023-03-10T12:50:29.815Z,82.70
2023-03-10T12:53:44.275Z,82.30
2023-03-10T12:57:04.660Z,83.60
2023-03-10T13:00:27.109Z,82.50
2023-03-10T13:03:43.739Z,82.70
2023-03-10T13:06:47.283Z,83.80
2023-03-10T13:09:50.901Z,84.00
2023-03-10T13:13:01.796Z,83.60
2023-03-10T13:16:07.850Z,83.30
2023-03-10T13:19:19.928Z,83.50
2023-03-10T13:22:22.322Z,84.50
2023-03-10T13:25:25.694Z,85.10
2023-03-10T13:28:30.383Z,84.50
2023-03-10T13:31:33.958Z,85.00
2023-03-10T13:34:35.960Z,85.20
2023-03-10T13:37:39.212Z,85.60
2023-03-10T13:40:50.128Z,85.90
2023-03-10T13:43:54.776Z,86.00
2023-03-10T13:46:59.275Z,85.60
2023-03-10T13:50:02.665Z,85.90
2023-03-10T13:53:04.647Z,86.20
2023-03-10T13:56:22.804Z,85.80
2023-03-10T13:59:29.078Z,86.00
2023-03-10T14:02:37.125Z,84.40
2023-03-10T14:05:46.414Z,84.20
2023-03-10T14:08:48.814Z,83.90
2023-03-10T14:11:51.750Z,84.20
2023-03-10T14:14:53.826Z,82.70
2023-03-10T14:18:08.325Z,82.50
2023-03-10T14:21:26.176Z,82.10
2023-03-10T14:24:28.184Z,81.20
2023-03-10T14:27:34.645Z,80.30
2023-03-10T14:30:37.148Z,80.30
2023-03-10T14:33:41.193Z,80.10
2023-03-10T14:36:44.233Z,79.40
2023-03-10T14:39:46.405Z,79.60
2023-03-10T14:42:50.204Z,79.50
2023-03-10T14:45:56.520Z,79.00
2023-03-10T14:48:58.943Z,79.40
2023-03-10T14:52:01.413Z,78.30
2023-03-10T14:55:09.618Z,79.30
2023-03-10T14:58:20.203Z,79.00
2023-03-10T15:01:23.042Z,78.60
2023-03-10T15:04:25.241Z,78.70
2023-03-10T15:07:27.624Z,78.40
2023-03-10T15:10:35.087Z,78.00
2023-03-10T15:13:38.545Z,78.60
2023-03-10T15:16:40.591Z,78.40
2023-03-10T15:19:45.430Z,78.00
2023-03-10T15:22:48.131Z,76.80
2023-03-10T15:25:50.630Z,76.60
2023-03-10T15:28:52.854Z,76.90
2023-03-10T15:31:55.255Z,77.90
2023-03-10T15:34:57.741Z,77.00
2023-03-10T15:37:59.939Z,76.00
2023-03-10T15:41:02.063Z,74.00
2023-03-10T15:44:06.112Z,73.30
2023-03-10T15:47:08.761Z,73.70
2023-03-10T15:50:12.637Z,73.40
2023-03-10T15:53:17.158Z,72.20
2023-03-10T15:56:25.916Z,71.20
2023-03-10T15:59:28.194Z,70.80
2023-03-10T16:02:30.595Z,71.10
2023-03-10T16:05:33.165Z,71.00
2023-03-10T16:08:41.201Z,72.50
2023-03-10T16:14:55.262Z,70.00
2023-03-10T16:17:57.741Z,70.00
2023-03-10T16:21:02.558Z,70.50
2023-03-10T16:24:05.795Z,68.60
2023-03-10T16:27:08.793Z,68.50
2023-03-10T16:30:14.022Z,68.10
2023-03-10T16:33:29.085Z,68.70
2023-03-10T16:36:38.748Z,67.20
2023-03-10T16:39:44.209Z,66.70
2023-03-10T16:46:18.072Z,66.70
2023-03-10T16:49:20.807Z,66.30
2023-03-10T16:52:23.679Z,65.30
2023-03-10T16:55:27.623Z,66.30
2023-03-10T16:58:36.280Z,67.00
2023-03-10T17:01:42.804Z,67.80
2023-03-10T17:04:46.065Z,71.80
2023-03-10T17:07:55.569Z,77.00
2023-03-10T17:10:58.735Z,77.20
2023-03-10T17:14:04.162Z,77.30
2023-03-10T17:17:08.046Z,77.30
2023-03-10T17:20:11.703Z,77.00
2023-03-10T17:23:15.060Z,77.60
2023-03-10T17:26:19.446Z,76.50
2023-03-10T17:29:22.315Z,76.20
2023-03-10T17:32:25.396Z,75.10
2023-03-10T17:35:29.060Z,75.10
2023-03-10T17:38:34.812Z,75.00
2023-03-10T17:41:37.738Z,76.20
2023-03-10T17:44:40.471Z,75.30
2023-03-10T17:47:42.854Z,75.50
2023-03-10T17:50:48.857Z,76.40
2023-03-10T17:53:52.828Z,77.80
2023-03-10T17:56:58.184Z,77.30
2023-03-10T18:00:01.546Z,77.80
2023-03-10T18:03:14.567Z,77.50
2023-03-10T18:06:20.434Z,77.70
2023-03-10T18:09:24.919Z,76.60
2023-03-10T18:12:27.580Z,76.30
2023-03-10T18:15:30.336Z,75.60
2023-03-10T18:18:34.056Z,75.10
2023-03-10T18:21:37.588Z,75.30
2023-03-10T18:24:40.720Z,75.40
2023-03-10T18:27:44.072Z,76.10
2023-03-10T18:30:49.521Z,76.70
2023-03-10T18:33:52.771Z,78.90
2023-03-10T18:36:55.819Z,79.00
2023-03-10T18:39:58.387Z,78.80
2023-03-10T18:43:01.753Z,78.00
2023-03-10T18:46:07.735Z,76.20
2023-03-10T18:49:10.688Z,75.30
2023-03-10T18:52:13.800Z,75.00
2023-03-10T18:55:16.482Z,74.00
2023-03-10T18:58:18.651Z,74.20
2023-03-10T19:01:21.170Z,73.00
2023-03-10T19:04:25.132Z,73.20
2023-03-10T19:07:29.002Z,73.90
2023-03-10T19:10:32.393Z,73.10
2023-03-10T19:13:36.634Z,73.70
2023-03-10T19:16:41.123Z,73.60
2023-03-10T19:19:44.615Z,75.10
2023-03-10T19:22:52.274Z,75.60
2023-03-10T19:25:56.429Z,77.30
2023-03-10T19:29:00.495Z,79.30
2023-03-10T19:32:04.203Z,79.10
2023-03-10T19:35:09.135Z,78.10
2023-03-10T19:38:12.960Z,77.80
2023-03-10T19:41:23.100Z,77.30
2023-03-10T19:44:31.500Z,74.70
2023-03-10T19:47:38.782Z,74.10
2023-03-10T19:50:41.454Z,71.30
2023-03-10T19:53:43.710Z,71.20
2023-03-10T19:56:45.782Z,69.60
2023-03-10T19:59:47.924Z,69.40
2023-03-10T20:02:50.269Z,68.90
2023-03-10T20:05:52.599Z,67.40
2023-03-10T20:08:55.221Z,68.10
2023-03-10T20:11:57.430Z,66.80
2023-03-10T20:14:59.883Z,66.60
2023-03-10T20:18:02.296Z,67.50
2023-03-10T20:21:05.185Z,65.60
2023-03-10T20:24:07.526Z,65.50
2023-03-10T20:27:09.659Z,65.20
2023-03-10T20:30:21.810Z,65.10
2023-03-10T20:33:24.100Z,66.30
2023-03-10T20:36:26.636Z,64.60
2023-03-10T20:39:28.525Z,63.40
2023-03-10T20:42:30.590Z,63.80
2023-03-10T20:45:32.608Z,62.60
2023-03-10T20:48:35.279Z,63.30
2023-03-10T20:51:38.659Z,63.20
2023-03-10T20:54:40.783Z,62.50
2023-03-10T20:57:42.826Z,62.10
2023-03-10T21:00:48.589Z,61.60
2023-03-10T21:03:50.761Z,61.40
2023-03-10T21:06:52.771Z,62.80
2023-03-10T21:09:58.357Z,63.40
2023-03-10T21:13:00.352Z,62.30
2023-03-10T21:16:03.017Z,63.10
2023-03-10T21:19:05.313Z,62.70
2023-03-10T21:22:07.446Z,63.20
2023-03-10T21:25:14.068Z,63.90
2023-03-10T21:28:16.341Z,63.50
2023-03-10T21:31:18.540Z,64.40
2023-03-10T21:34:21.135Z,62.50
2023-03-10T21:37:23.282Z,63.20
2023-03-10T21:40:25.725Z,63.00
2023-03-10T21:43:27.926Z,64.00
2023-03-10T21:46:30.344Z,63.60
2023-03-10T21:49:32.470Z,64.40
2023-03-10T21:52:34.562Z,62.90
2023-03-10T21:55:37.175Z,63.70
2023-03-10T21:58:39.227Z,64.40
2023-03-10T22:01:41.243Z,63.70
2023-03-10T22:04:43.467Z,64.60
2023-03-10T22:07:45.656Z,64.30
2023-03-10T22:10:48.574Z,65.00
2023-03-10T22:13:53.069Z,65.60
2023-03-10T22:16:55.180Z,66.10
2023-03-10T22:19:57.250Z,65.80
2023-03-10T22:22:59.324Z,64.60
2023-03-10T22:26:01.269Z,64.10
2023-03-10T22:29:03.194Z,62.60
2023-03-10T22:32:05.811Z,63.80
2023-03-10T22:35:08.491Z,64.80
2023-03-10T22:38:10.385Z,64.30
2023-03-10T22:41:13.236Z,65.20
2023-03-10T22:44:15.340Z,65.10
2023-03-10T22:47:17.622Z,65.90
2023-03-10T22:50:28.580Z,65.60
2023-03-10T22:53:30.459Z,66.00
2023-03-10T22:56:32.706Z,66.40
2023-03-10T22:59:34.617Z,65.90
2023-03-10T23:02:36.550Z,66.80
2023-03-10T23:05:39.845Z,65.60
2023-03-10T23:08:42.662Z,64.80
2023-03-10T23:11:44.529Z,65.90
2023-03-10T23:14:46.489Z,65.70
2023-03-10T23:17:48.919Z,65.90
2023-03-10T23:20:50.841Z,65.80
2023-03-10T23:23:52.801Z,65.50
2023-03-10T23:26:54.697Z,65.00
2023-03-10T23:29:57.249Z,65.20
2023-03-10T23:32:59.516Z,64.70
2023-03-10T23:36:01.377Z,64.80
2023-03-10T23:39:03.510Z,65.40
2023-03-10T23:42:05.708Z,65.90
2023-03-10T23:45:11.285Z,65.50
2023-03-10T23:48:16.628Z,66.00
2023-03-10T23:51:18.497Z,65.80
2023-03-10T23:54:20.449Z,67.90
2023-03-10T23:57:22.363Z,67.60
